createdAt,value
2019-02-14T00:00:09.059Z,6.05
2019-02-14T00:02:37.664Z,6.04
2019-02-14T00:05:06.218Z,6.05
2019-02-14T00:07:34.632Z,6.03
2019-02-14T00:10:03.116Z,6.04
2019-02-14T00:12:31.639Z,6.07
2019-02-14T00:15:00.042Z,6.06
2019-02-14T00:17:28.496Z,6.07
2019-02-14T00:19:56.905Z,6.08
2019-02-14T00:22:25.335Z,6.09
2019-02-14T00:24:53.778Z,6.06
2019-02-14T00:27:24.630Z,5.99
2019-02-14T00:29:52.438Z,6.06
2019-02-14T00:32:20.849Z,6.09
2019-02-14T00:34:49.307Z,6.04
2019-02-14T00:37:17.804Z,6.06
2019-02-14T00:39:46.235Z,6.04
2019-02-14T00:42:14.699Z,6.05
2019-02-14T00:44:43.150Z,6.05
2019-02-14T00:47:11.558Z,6.06
2019-02-14T00:49:40.000Z,6.00
2019-02-14T00:52:08.444Z,6.06
2019-02-14T00:54:36.861Z,6.05
2019-02-14T00:57:05.309Z,6.05
2019-02-14T00:59:33.775Z,6.03
2019-02-14T01:02:02.162Z,6.01
2019-02-14T01:04:30.589Z,5.94
2019-02-14T01:06:59.039Z,5.91
2019-02-14T01:09:27.467Z,5.86
2019-02-14T01:11:55.939Z,5.86
2019-02-14T01:14:24.364Z,5.83
2019-02-14T01:16:52.784Z,5.80
2019-02-14T01:19:21.244Z,5.81
2019-02-14T01:21:49.746Z,5.81
2019-02-14T01:24:18.232Z,5.83
2019-02-14T01:26:46.686Z,5.86
2019-02-14T01:29:15.107Z,5.87
2019-02-14T01:31:43.575Z,5.83
2019-02-14T01:34:12.015Z,5.82
2019-02-14T01:36:40.675Z,5.76
2019-02-14T01:39:09.078Z,5.72
2019-02-14T01:41:37.519Z,5.64
2019-02-14T01:44:05.935Z,5.65
2019-02-14T01:46:34.377Z,5.55
2019-02-14T01:49:02.834Z,5.55
2019-02-14T01:51:31.274Z,5.57
2019-02-14T01:53:59.713Z,5.49
2019-02-14T01:56:28.818Z,5.45
2019-02-14T01:58:57.256Z,5.40
2019-02-14T02:01:26.140Z,5.45
2019-02-14T02:03:54.604Z,5.35
2019-02-14T02:06:23.029Z,5.36
2019-02-14T02:08:51.446Z,5.38
2019-02-14T02:11:19.894Z,5.30
2019-02-14T02:13:48.350Z,5.33
2019-02-14T02:16:16.754Z,5.32
2019-02-14T02:18:45.323Z,5.25
2019-02-14T02:21:13.739Z,5.26
2019-02-14T02:23:42.152Z,5.18
2019-02-14T02:26:10.610Z,5.18
2019-02-14T02:28:39.027Z,5.09
2019-02-14T02:31:07.470Z,5.09
2019-02-14T02:33:35.925Z,5.08
2019-02-14T02:36:04.454Z,5.06
2019-02-14T02:38:32.874Z,5.07
2019-02-14T02:41:01.325Z,5.07
2019-02-14T02:43:29.734Z,5.04
2019-02-14T02:45:58.186Z,5.04
2019-02-14T02:48:26.646Z,5.03
2019-02-14T02:50:55.087Z,5.08
2019-02-14T02:53:23.567Z,5.05
2019-02-14T02:55:51.988Z,5.08
2019-02-14T02:58:20.461Z,5.03
2019-02-14T03:00:48.882Z,4.97
2019-02-14T03:03:17.308Z,4.97
2019-02-14T03:05:45.763Z,4.95
2019-02-14T03:08:14.184Z,4.90
2019-02-14T03:10:42.656Z,4.79
2019-02-14T03:13:11.105Z,4.78
2019-02-14T03:15:39.545Z,4.78
2019-02-14T03:18:07.990Z,4.77
2019-02-14T03:20:36.434Z,4.78
2019-02-14T03:23:04.874Z,4.74
2019-02-14T03:25:33.298Z,4.68
2019-02-14T03:28:01.793Z,4.67
2019-02-14T03:30:30.222Z,4.65
2019-02-14T03:32:58.671Z,4.61
2019-02-14T03:35:27.097Z,4.60
2019-02-14T03:37:55.533Z,4.60
2019-02-14T03:40:23.946Z,4.58
2019-02-14T03:42:54.073Z,4.50
2019-02-14T03:45:22.573Z,4.42
2019-02-14T03:47:51.013Z,4.46
2019-02-14T03:50:19.516Z,4.47
2019-02-14T03:52:47.973Z,4.47
2019-02-14T03:55:16.424Z,4.47
2019-02-14T03:57:44.854Z,4.43
2019-02-14T04:00:17.929Z,4.45
2019-02-14T04:02:46.408Z,4.37
2019-02-14T04:05:14.883Z,4.36
2019-02-14T04:07:43.294Z,4.26
2019-02-14T04:10:13.593Z,4.24
2019-02-14T04:12:42.107Z,4.25
2019-02-14T04:15:15.914Z,4.25
2019-02-14T04:17:44.366Z,4.28
2019-02-14T04:20:14.572Z,4.23
2019-02-14T04:22:42.988Z,4.23
2019-02-14T04:25:11.858Z,4.25
2019-02-14T04:27:40.313Z,4.25
2019-02-14T04:30:13.356Z,4.24
2019-02-14T04:32:41.782Z,4.22
2019-02-14T04:35:10.294Z,4.21
2019-02-14T04:37:38.750Z,4.20
2019-02-14T04:40:12.563Z,4.19
2019-02-14T04:42:40.995Z,4.17
2019-02-14T04:45:11.483Z,4.14
2019-02-14T04:47:39.914Z,4.05
2019-02-14T04:50:10.901Z,4.08
2019-02-14T04:52:39.349Z,4.02
2019-02-14T04:55:10.662Z,4.00
2019-02-14T04:57:39.119Z,4.05
2019-02-14T05:00:14.974Z,3.92
2019-02-14T05:02:43.456Z,3.89
2019-02-14T05:05:12.120Z,3.88
2019-02-14T05:07:40.589Z,3.92
2019-02-14T05:10:11.245Z,3.92
2019-02-14T05:12:39.750Z,3.90
2019-02-14T05:15:10.254Z,3.81
2019-02-14T05:17:38.698Z,3.73
2019-02-14T05:20:09.770Z,3.67
2019-02-14T05:22:38.658Z,3.65
2019-02-14T05:25:08.990Z,3.58
2019-02-14T05:27:37.420Z,3.43
2019-02-14T05:30:08.980Z,3.34
2019-02-14T05:32:37.526Z,3.39
2019-02-14T05:35:07.115Z,3.45
2019-02-14T05:37:35.599Z,3.37
2019-02-14T05:40:05.962Z,3.23
2019-02-14T05:42:34.456Z,3.27
2019-02-14T05:45:03.179Z,3.25
2019-02-14T05:47:31.591Z,3.23
2019-02-14T05:50:00.061Z,3.24
2019-02-14T05:52:28.545Z,3.25
2019-02-14T05:54:56.975Z,3.21
2019-02-14T05:57:27.300Z,3.19
2019-02-14T05:59:55.681Z,3.17
2019-02-14T06:02:24.135Z,3.13
2019-02-14T06:04:52.593Z,3.13
2019-02-14T06:07:21.096Z,3.03
2019-02-14T06:09:49.533Z,3.00
2019-02-14T06:12:17.981Z,3.06
2019-02-14T06:14:46.496Z,3.08
2019-02-14T06:17:14.991Z,3.08
2019-02-14T06:19:43.395Z,3.07
2019-02-14T06:22:11.953Z,3.08
2019-02-14T06:24:40.412Z,3.06
2019-02-14T06:27:08.845Z,3.01
2019-02-14T06:29:37.320Z,3.05
2019-02-14T06:32:05.747Z,2.98
2019-02-14T06:34:34.193Z,2.96
2019-02-14T06:37:09.469Z,2.97
2019-02-14T06:39:32.824Z,3.00
2019-02-14T06:42:01.248Z,2.99
2019-02-14T06:44:29.803Z,3.04
2019-02-14T06:46:58.232Z,3.10
2019-02-14T06:49:26.667Z,3.09
2019-02-14T06:51:55.270Z,3.09
2019-02-14T06:54:26.455Z,3.06
2019-02-14T06:56:54.894Z,3.01
2019-02-14T06:59:24.319Z,3.07
2019-02-14T07:01:52.778Z,3.12
2019-02-14T07:04:21.220Z,3.16
2019-02-14T07:06:49.695Z,3.23
2019-02-14T07:09:18.137Z,3.29
2019-02-14T07:11:46.583Z,3.35
2019-02-14T07:14:15.046Z,3.44
2019-02-14T07:16:43.503Z,3.50
2019-02-14T07:19:12.022Z,3.55
2019-02-14T07:21:40.484Z,3.62
2019-02-14T07:24:08.951Z,3.85
2019-02-14T07:26:37.426Z,4.07
2019-02-14T07:29:05.851Z,4.26
2019-02-14T07:31:34.306Z,4.47
2019-02-14T07:34:04.047Z,4.72
2019-02-14T07:36:32.808Z,4.97
2019-02-14T07:39:01.309Z,5.37
2019-02-14T07:41:29.766Z,5.74
2019-02-14T07:43:58.218Z,6.14
2019-02-14T07:46:26.699Z,6.09
2019-02-14T07:48:55.168Z,6.34
2019-02-14T07:51:23.600Z,6.30
2019-02-14T07:53:52.037Z,6.40
2019-02-14T07:56:20.499Z,6.50
2019-02-14T07:58:48.941Z,6.40
2019-02-14T08:01:17.363Z,6.55
2019-02-14T08:03:45.802Z,6.85
2019-02-14T08:06:14.243Z,7.01
2019-02-14T08:08:42.667Z,7.19
2019-02-14T08:11:11.127Z,7.22
2019-02-14T08:13:39.561Z,7.51
2019-02-14T08:16:08.241Z,7.83
2019-02-14T08:18:36.671Z,7.93
2019-02-14T08:21:05.101Z,7.85
2019-02-14T08:23:33.565Z,7.82
2019-02-14T08:26:10.417Z,7.97
2019-02-14T08:28:32.164Z,7.94
2019-02-14T08:31:00.626Z,8.26
2019-02-14T08:33:29.047Z,8.97
2019-02-14T08:35:57.488Z,9.26
2019-02-14T08:38:25.945Z,9.40
2019-02-14T08:40:55.298Z,9.07
2019-02-14T08:43:25.547Z,9.39
2019-02-14T08:45:53.961Z,9.63
2019-02-14T08:48:22.409Z,9.53
2019-02-14T08:50:50.908Z,9.68
2019-02-14T08:53:19.386Z,9.98
2019-02-14T08:55:47.836Z,10.55
2019-02-14T08:58:16.307Z,11.27
2019-02-14T09:00:44.855Z,10.76
2019-02-14T09:03:13.319Z,10.29
2019-02-14T09:05:41.827Z,10.00
2019-02-14T09:08:10.274Z,9.58
2019-02-14T09:10:38.714Z,9.56
2019-02-14T09:13:07.166Z,10.15
2019-02-14T09:15:35.675Z,10.38
2019-02-14T09:18:04.105Z,10.90
2019-02-14T09:20:32.516Z,11.82
2019-02-14T09:23:01.063Z,12.28
2019-02-14T09:25:29.473Z,13.71
2019-02-14T09:27:57.920Z,14.27
2019-02-14T09:30:26.381Z,13.96
2019-02-14T09:32:54.919Z,13.74
2019-02-14T09:35:23.384Z,13.61
2019-02-14T09:37:51.835Z,13.61
2019-02-14T09:40:20.271Z,12.64
2019-02-14T09:42:48.719Z,12.35
2019-02-14T09:45:17.222Z,12.06
2019-02-14T09:47:45.682Z,12.38
2019-02-14T09:50:15.728Z,12.66
2019-02-14T09:52:45.722Z,12.99
2019-02-14T09:55:14.810Z,13.10
2019-02-14T09:57:43.355Z,12.68
2019-02-14T10:00:14.538Z,13.61
2019-02-14T10:02:42.994Z,13.73
2019-02-14T10:05:11.903Z,13.82
2019-02-14T10:07:40.424Z,13.29
2019-02-14T10:10:12.279Z,12.79
2019-02-14T10:12:40.736Z,12.93
2019-02-14T10:15:10.558Z,12.53
2019-02-14T10:17:38.963Z,12.33
2019-02-14T10:20:13.109Z,11.66
2019-02-14T10:22:41.651Z,11.91
2019-02-14T10:25:10.833Z,11.95
2019-02-14T10:27:39.326Z,11.61
2019-02-14T10:30:10.841Z,11.38
2019-02-14T10:32:39.299Z,11.15
2019-02-14T10:35:07.786Z,10.91
2019-02-14T10:37:36.160Z,10.61
2019-02-14T10:40:06.998Z,10.85
2019-02-14T10:42:35.454Z,10.77
2019-02-14T10:45:05.248Z,10.92
2019-02-14T10:47:33.804Z,10.79
2019-02-14T10:50:02.239Z,10.79
2019-02-14T10:52:30.694Z,10.77
2019-02-14T10:54:59.133Z,10.52
2019-02-14T10:57:27.573Z,10.59
2019-02-14T10:59:56.294Z,10.47
2019-02-14T11:02:24.739Z,10.38
2019-02-14T11:04:53.252Z,10.39
2019-02-14T11:07:21.684Z,10.31
2019-02-14T11:09:50.431Z,10.40
2019-02-14T11:12:18.906Z,10.43
2019-02-14T11:14:47.520Z,10.49
2019-02-14T11:17:16.111Z,10.49
2019-02-14T11:19:44.508Z,10.53
2019-02-14T11:22:12.944Z,10.55
2019-02-14T11:24:41.391Z,10.67
2019-02-14T11:27:10.350Z,10.66
2019-02-14T11:29:38.781Z,10.64
2019-02-14T11:32:07.213Z,10.59
2019-02-14T11:34:35.637Z,10.58
2019-02-14T11:37:04.161Z,10.61
2019-02-14T11:39:32.609Z,10.59
2019-02-14T11:42:01.087Z,10.68
2019-02-14T11:44:29.519Z,10.70
2019-02-14T11:46:57.980Z,10.60
2019-02-14T11:49:26.469Z,10.66
2019-02-14T11:51:55.004Z,10.62
2019-02-14T11:54:23.450Z,10.59
2019-02-14T11:56:51.890Z,10.60
2019-02-14T11:59:20.339Z,10.72
2019-02-14T12:01:55.132Z,10.75
2019-02-14T12:04:18.913Z,10.75
2019-02-14T12:06:47.458Z,10.75
2019-02-14T12:09:15.881Z,10.75
2019-02-14T12:11:44.355Z,10.73
2019-02-14T12:14:12.759Z,10.72
2019-02-14T12:16:42.757Z,10.75
2019-02-14T12:19:11.224Z,10.77
2019-02-14T12:21:39.679Z,10.72
2019-02-14T12:24:08.146Z,10.78
2019-02-14T12:26:36.667Z,10.83
2019-02-14T12:29:05.018Z,10.64
2019-02-14T12:31:33.472Z,10.80
2019-02-14T12:34:01.911Z,10.87
2019-02-14T12:36:30.405Z,10.89
2019-02-14T12:38:58.838Z,10.91
2019-02-14T12:41:27.265Z,11.03
2019-02-14T12:43:55.705Z,11.01
2019-02-14T12:46:24.140Z,11.00
2019-02-14T12:48:52.588Z,11.00
2019-02-14T12:51:21.020Z,11.04
2019-02-14T12:53:49.450Z,11.11
2019-02-14T12:56:17.908Z,11.19
2019-02-14T12:58:46.350Z,11.28
2019-02-14T13:01:14.797Z,11.33
2019-02-14T13:03:43.241Z,11.37
2019-02-14T13:06:11.745Z,11.48
2019-02-14T13:08:40.207Z,11.37
2019-02-14T13:11:08.648Z,11.34
2019-02-14T13:13:37.071Z,11.33
2019-02-14T13:16:05.553Z,11.40
2019-02-14T13:18:33.991Z,11.45
2019-02-14T13:21:02.420Z,11.43
2019-02-14T13:23:30.891Z,11.56
2019-02-14T13:25:59.361Z,11.58
2019-02-14T13:28:27.818Z,11.57
2019-02-14T13:30:56.262Z,11.58
2019-02-14T13:33:24.722Z,11.52
2019-02-14T13:35:53.402Z,11.57
2019-02-14T13:38:21.922Z,11.61
2019-02-14T13:40:50.349Z,11.61
2019-02-14T13:43:18.781Z,11.60
2019-02-14T13:45:47.399Z,11.58
2019-02-14T13:48:15.908Z,11.57
2019-02-14T13:50:44.320Z,11.58
2019-02-14T13:53:12.744Z,11.65
2019-02-14T13:55:41.451Z,11.52
2019-02-14T13:58:09.961Z,11.51
2019-02-14T14:00:38.524Z,11.51
2019-02-14T14:03:06.990Z,11.50
2019-02-14T14:05:35.449Z,11.46
2019-02-14T14:08:04.015Z,11.49
2019-02-14T14:10:32.462Z,11.56
2019-02-14T14:13:00.887Z,11.54
2019-02-14T14:15:29.383Z,11.47
2019-02-14T14:17:57.833Z,11.47
2019-02-14T14:20:26.285Z,11.51
2019-02-14T14:22:54.756Z,11.51
2019-02-14T14:25:23.232Z,11.52
2019-02-14T14:27:51.665Z,11.50
2019-02-14T14:30:20.145Z,11.50
2019-02-14T14:32:48.557Z,11.50
2019-02-14T14:35:17.952Z,11.45
2019-02-14T14:37:46.506Z,11.46
2019-02-14T14:40:16.691Z,11.45
2019-02-14T14:42:52.761Z,11.45
2019-02-14T14:45:40.077Z,11.49
2019-02-14T14:48:18.925Z,11.41
2019-02-14T14:50:40.414Z,11.44
2019-02-14T14:53:08.850Z,11.38
2019-02-14T14:55:37.272Z,11.37
2019-02-14T14:58:05.876Z,11.40
2019-02-14T15:00:34.326Z,11.42
2019-02-14T15:03:02.749Z,11.32
2019-02-14T15:05:31.180Z,11.40
2019-02-14T15:07:59.629Z,11.45
2019-02-14T15:10:28.084Z,11.36
2019-02-14T15:12:56.697Z,11.37
2019-02-14T15:15:25.107Z,11.39
2019-02-14T15:17:53.553Z,11.28
2019-02-14T15:20:21.987Z,11.29
2019-02-14T15:22:50.433Z,11.25
2019-02-14T15:25:18.877Z,11.24
2019-02-14T15:27:47.359Z,11.23
2019-02-14T15:30:15.706Z,11.19
2019-02-14T15:32:44.197Z,11.17
2019-02-14T15:35:12.591Z,11.21
2019-02-14T15:37:41.968Z,11.17
2019-02-14T15:40:11.237Z,11.05
2019-02-14T15:42:39.670Z,10.94
2019-02-14T15:45:08.728Z,10.93
2019-02-14T15:47:37.179Z,10.90
2019-02-14T15:50:08.882Z,10.88
2019-02-14T15:52:37.537Z,10.82
2019-02-14T15:55:07.306Z,10.80
2019-02-14T15:57:35.740Z,10.75
2019-02-14T16:00:09.657Z,10.70
2019-02-14T16:02:36.081Z,10.67
2019-02-14T16:05:05.756Z,10.59
2019-02-14T16:07:34.219Z,10.58
2019-02-14T16:10:05.421Z,10.53
2019-02-14T16:12:32.839Z,10.48
2019-02-14T16:15:01.251Z,10.43
2019-02-14T16:17:29.698Z,10.39
2019-02-14T16:19:59.717Z,10.36
2019-02-14T16:22:30.005Z,10.32
2019-02-14T16:24:58.387Z,10.31
2019-02-14T16:27:26.984Z,10.19
2019-02-14T16:29:55.332Z,10.12
2019-02-14T16:32:23.768Z,10.11
2019-02-14T16:34:52.177Z,9.99
2019-02-14T16:37:20.583Z,9.97
2019-02-14T16:39:51.753Z,9.90
2019-02-14T16:42:19.254Z,9.82
2019-02-14T16:44:47.731Z,9.78
2019-02-14T16:47:16.164Z,9.71
2019-02-14T16:49:44.597Z,9.64
2019-02-14T16:52:13.122Z,9.58
2019-02-14T16:54:41.586Z,9.53
2019-02-14T16:57:10.057Z,9.48
2019-02-14T16:59:38.470Z,9.40
2019-02-14T17:02:06.900Z,9.34
2019-02-14T17:04:35.345Z,9.34
2019-02-14T17:07:03.838Z,9.24
2019-02-14T17:09:32.277Z,9.21
2019-02-14T17:12:00.695Z,9.14
2019-02-14T17:14:29.154Z,9.11
2019-02-14T17:16:57.602Z,8.96
2019-02-14T17:19:26.032Z,8.87
2019-02-14T17:21:54.501Z,8.87
2019-02-14T17:24:22.932Z,8.78
2019-02-14T17:26:51.377Z,8.63
2019-02-14T17:29:19.801Z,8.58
2019-02-14T17:31:48.355Z,8.53
2019-02-14T17:34:16.735Z,8.45
2019-02-14T17:36:45.170Z,8.43
2019-02-14T17:39:13.707Z,8.38
2019-02-14T17:41:42.140Z,8.28
2019-02-14T17:44:10.621Z,8.18
2019-02-14T17:46:38.997Z,8.14
2019-02-14T17:49:07.433Z,8.06
2019-02-14T17:51:35.876Z,7.93
2019-02-14T17:54:04.417Z,7.93
2019-02-14T17:56:32.864Z,7.83
2019-02-14T17:59:01.459Z,7.79
2019-02-14T18:01:30.065Z,7.74
2019-02-14T18:03:58.491Z,7.71
2019-02-14T18:06:26.934Z,7.56
2019-02-14T18:08:55.378Z,7.60
2019-02-14T18:11:23.848Z,7.52
2019-02-14T18:13:52.297Z,7.47
2019-02-14T18:16:20.705Z,7.39
2019-02-14T18:18:49.219Z,7.31
2019-02-14T18:21:17.703Z,7.21
2019-02-14T18:23:46.238Z,7.15
2019-02-14T18:26:14.868Z,7.06
2019-02-14T18:28:43.602Z,7.08
2019-02-14T18:31:12.102Z,7.02
2019-02-14T18:33:40.567Z,6.92
2019-02-14T18:36:08.990Z,6.91
2019-02-14T18:38:37.412Z,6.86
2019-02-14T18:41:06.023Z,6.69
2019-02-14T18:43:34.474Z,6.70
2019-02-14T18:46:02.891Z,6.69
2019-02-14T18:48:31.345Z,6.60
2019-02-14T18:50:59.761Z,6.57
2019-02-14T18:53:28.204Z,6.50
2019-02-14T18:55:56.712Z,6.47
2019-02-14T18:58:26.825Z,6.46
2019-02-14T19:00:55.330Z,6.43
2019-02-14T19:03:23.757Z,6.24
2019-02-14T19:05:52.235Z,6.27
2019-02-14T19:08:20.730Z,6.29
2019-02-14T19:10:49.184Z,6.16
2019-02-14T19:13:18.796Z,6.10
2019-02-14T19:15:47.752Z,6.11
2019-02-14T19:18:16.216Z,6.03
2019-02-14T19:20:44.637Z,6.05
2019-02-14T19:23:23.308Z,5.91
2019-02-14T19:25:43.300Z,5.85
2019-02-14T19:28:11.740Z,5.78
2019-02-14T19:30:40.198Z,5.72
2019-02-14T19:33:08.672Z,5.69
2019-02-14T19:35:37.096Z,5.71
2019-02-14T19:38:05.581Z,5.60
2019-02-14T19:40:34.062Z,5.62
2019-02-14T19:43:02.521Z,5.53
2019-02-14T19:45:36.722Z,5.51
2019-02-14T19:48:01.132Z,5.43
2019-02-14T19:50:29.553Z,5.43
2019-02-14T19:52:57.979Z,5.41
2019-02-14T19:55:26.424Z,5.29
2019-02-14T19:57:54.841Z,5.25
2019-02-14T20:00:23.301Z,5.19
2019-02-14T20:02:51.710Z,5.10
2019-02-14T20:05:20.137Z,5.10
2019-02-14T20:07:48.755Z,5.05
2019-02-14T20:10:17.186Z,5.07
2019-02-14T20:12:45.621Z,5.00
2019-02-14T20:15:16.404Z,4.94
2019-02-14T20:17:44.890Z,4.84
2019-02-14T20:20:13.302Z,4.83
2019-02-14T20:22:41.725Z,4.75
2019-02-14T20:25:13.210Z,4.75
2019-02-14T20:27:41.665Z,4.78
2019-02-14T20:30:10.141Z,4.78
2019-02-14T20:32:38.618Z,4.71
2019-02-14T20:35:09.004Z,4.69
2019-02-14T20:37:37.443Z,4.63
2019-02-14T20:40:09.310Z,4.61
2019-02-14T20:42:37.845Z,4.58
2019-02-14T20:45:15.974Z,4.55
2019-02-14T20:47:44.451Z,4.48
2019-02-14T20:50:14.575Z,4.46
2019-02-14T20:52:43.268Z,4.42
2019-02-14T20:55:23.390Z,4.37
2019-02-14T20:57:51.822Z,4.28
2019-02-14T21:00:21.996Z,4.29
2019-02-14T21:02:50.385Z,4.29
2019-02-14T21:05:18.811Z,4.27
2019-02-14T21:07:47.237Z,4.27
2019-02-14T21:10:15.636Z,4.23
2019-02-14T21:12:44.084Z,4.28
2019-02-14T21:15:12.517Z,4.27
2019-02-14T21:17:41.094Z,4.27
2019-02-14T21:20:12.490Z,4.26
2019-02-14T21:22:41.051Z,4.25
2019-02-14T21:25:10.132Z,4.29
2019-02-14T21:27:39.090Z,4.25
2019-02-14T21:30:16.425Z,4.17
2019-02-14T21:32:44.851Z,4.13
2019-02-14T21:35:13.377Z,4.06
2019-02-14T21:37:41.960Z,4.05
2019-02-14T21:40:13.246Z,4.05
2019-02-14T21:42:41.757Z,4.01
2019-02-14T21:45:12.743Z,3.97
2019-02-14T21:47:41.286Z,3.98
2019-02-14T21:50:11.367Z,3.92
2019-02-14T21:52:39.850Z,3.87
2019-02-14T21:55:10.591Z,3.75
2019-02-14T21:57:39.142Z,3.78
2019-02-14T22:00:25.788Z,3.76
2019-02-14T22:02:54.291Z,3.74
2019-02-14T22:05:25.741Z,3.66
2019-02-14T22:07:52.960Z,3.63
2019-02-14T22:10:21.389Z,3.59
2019-02-14T22:12:49.984Z,3.57
2019-02-14T22:15:24.377Z,3.56
2019-02-14T22:17:52.916Z,3.50
2019-02-14T22:20:21.427Z,3.51
2019-02-14T22:22:49.877Z,3.46
2019-02-14T22:25:18.389Z,3.46
2019-02-14T22:27:46.870Z,3.43
2019-02-14T22:30:16.345Z,3.38
2019-02-14T22:32:46.517Z,3.39
2019-02-14T22:35:15.123Z,3.32
2019-02-14T22:37:43.581Z,3.23
2019-02-14T22:40:14.432Z,3.20
2019-02-14T22:42:47.076Z,3.15
2019-02-14T22:45:16.191Z,3.14
2019-02-14T22:47:45.138Z,3.06
2019-02-14T22:50:14.428Z,3.01
2019-02-14T22:52:42.865Z,2.96
2019-02-14T22:55:12.838Z,2.93
2019-02-14T22:57:41.327Z,2.85
2019-02-14T23:00:30.138Z,2.86
2019-02-14T23:02:58.789Z,2.88
2019-02-14T23:05:27.255Z,2.78
2019-02-14T23:07:55.759Z,2.73
2019-02-14T23:10:24.263Z,2.73
2019-02-14T23:12:55.755Z,2.61
2019-02-14T23:15:22.989Z,2.59
2019-02-14T23:17:51.432Z,2.58
2019-02-14T23:20:19.854Z,2.59
2019-02-14T23:22:48.320Z,2.57
2019-02-14T23:25:16.710Z,2.55
2019-02-14T23:27:45.283Z,2.51
2019-02-14T23:30:13.834Z,2.49
2019-02-14T23:32:42.313Z,2.45
2019-02-14T23:35:10.910Z,2.37
2019-02-14T23:37:39.732Z,2.40
2019-02-14T23:40:08.354Z,2.30
2019-02-14T23:42:36.983Z,2.31
2019-02-14T23:45:08.370Z,2.24
2019-02-14T23:47:37.242Z,2.24
2019-02-14T23:50:08.234Z,2.22
2019-02-14T23:52:36.653Z,2.18
2019-02-14T23:55:07.105Z,2.08
2019-02-14T23:57:35.557Z,2.10
